createdAt,value
2023-03-13T00:01:13.366Z,94.90
2023-03-13T00:03:41.540Z,95.90
2023-03-13T00:06:10.121Z,95.20
2023-03-13T00:08:38.557Z,95.80
2023-03-13T00:11:07.856Z,95.30
2023-03-13T00:13:36.222Z,93.90
2023-03-13T00:16:07.906Z,94.10
2023-03-13T00:18:36.470Z,95.20
2023-03-13T00:21:06.682Z,95.60
2023-03-13T00:23:36.227Z,94.50
2023-03-13T00:26:06.722Z,95.40
2023-03-13T00:28:36.133Z,93.20
2023-03-13T00:31:05.413Z,95.40
2023-03-13T00:33:35.402Z,94.90
2023-03-13T00:36:05.568Z,94.20
2023-03-13T00:38:34.310Z,95.40
2023-03-13T00:41:03.772Z,95.00
2023-03-13T00:43:32.050Z,95.90
2023-03-13T00:46:00.416Z,94.00
2023-03-13T00:48:28.984Z,94.90
2023-03-13T00:50:58.783Z,94.00
2023-03-13T00:53:27.099Z,94.30
2023-03-13T00:55:57.615Z,93.60
2023-03-13T00:58:26.946Z,92.60
2023-03-13T01:00:55.644Z,92.00
2023-03-13T01:03:26.138Z,94.90
2023-03-13T01:05:59.828Z,96.10
2023-03-13T01:08:29.047Z,96.80
2023-03-13T01:11:01.033Z,97.30
2023-03-13T01:13:29.937Z,95.90
2023-03-13T01:15:58.131Z,97.20
2023-03-13T01:18:26.343Z,96.80
2023-03-13T01:20:54.801Z,96.90
2023-03-13T01:23:24.533Z,97.20
2023-03-13T01:25:52.719Z,97.10
2023-03-13T01:28:20.911Z,95.50
2023-03-13T01:30:49.156Z,95.40
2023-03-13T01:33:17.419Z,95.90
2023-03-13T01:35:45.798Z,96.50
2023-03-13T01:38:14.014Z,97.20
2023-03-13T01:40:46.258Z,95.90
2023-03-13T01:43:26.379Z,96.20
2023-03-13T01:46:02.620Z,96.00
2023-03-13T01:48:36.962Z,97.80
2023-03-13T01:51:09.198Z,96.90
2023-03-13T01:53:39.449Z,96.70
2023-03-13T01:56:14.644Z,96.30
2023-03-13T01:58:43.738Z,96.20
2023-03-13T02:01:13.138Z,96.20
2023-03-13T02:03:41.323Z,95.80
2023-03-13T02:06:11.183Z,96.80
2023-03-13T02:08:43.483Z,96.30
2023-03-13T02:11:21.685Z,95.00
2023-03-13T02:13:51.595Z,95.40
2023-03-13T02:16:21.268Z,95.00
2023-03-13T02:18:49.946Z,96.00
2023-03-13T02:21:26.707Z,95.90
2023-03-13T02:24:00.069Z,95.80
2023-03-13T02:26:29.663Z,95.50
2023-03-13T02:28:57.882Z,97.00
2023-03-13T02:31:27.290Z,96.90
2023-03-13T02:33:57.054Z,96.90
2023-03-13T02:36:25.254Z,98.80
2023-03-13T02:38:57.414Z,98.20
2023-03-13T02:41:26.817Z,98.30
2023-03-13T02:43:56.335Z,97.60
2023-03-13T02:46:24.719Z,97.90
2023-03-13T02:48:55.566Z,97.80
2023-03-13T02:51:27.699Z,96.80
2023-03-13T02:53:59.835Z,97.30
2023-03-13T02:56:29.024Z,97.40
2023-03-13T02:58:58.614Z,99.20
2023-03-13T03:01:26.865Z,98.40
2023-03-13T03:03:55.131Z,98.00
2023-03-13T03:06:23.336Z,98.90
2023-03-13T03:08:51.743Z,99.10
2023-03-13T03:11:19.968Z,99.10
2023-03-13T03:13:48.202Z,97.50
2023-03-13T03:16:18.810Z,98.10
2023-03-13T03:18:47.375Z,99.90
2023-03-13T03:21:15.654Z,98.10
2023-03-13T03:23:43.809Z,98.90
2023-03-13T03:26:12.088Z,96.60
2023-03-13T03:28:40.210Z,96.90
2023-03-13T03:31:09.234Z,97.60
2023-03-13T03:33:39.613Z,96.70
2023-03-13T03:36:10.977Z,96.60
2023-03-13T03:38:39.847Z,96.70
2023-03-13T03:41:08.338Z,97.40
2023-03-13T03:43:36.764Z,95.00
2023-03-13T03:46:05.439Z,98.60
2023-03-13T03:48:33.977Z,98.20
2023-03-13T03:51:03.484Z,99.20
2023-03-13T03:53:32.480Z,99.70
2023-03-13T03:56:01.108Z,97.70
2023-03-13T03:58:29.461Z,97.00
2023-03-13T04:00:59.113Z,95.70
2023-03-13T04:03:27.467Z,97.70
2023-03-13T04:05:55.757Z,96.10
2023-03-13T04:08:25.778Z,96.20
2023-03-13T04:10:54.004Z,97.10
2023-03-13T04:13:22.232Z,96.80
2023-03-13T04:15:50.321Z,99.90
2023-03-13T04:18:18.462Z,99.90
2023-03-13T04:20:47.036Z,97.20
2023-03-13T04:23:15.662Z,97.70
2023-03-13T04:25:45.209Z,97.30
2023-03-13T04:28:13.369Z,97.00
2023-03-13T04:30:42.275Z,97.30
2023-03-13T04:33:10.509Z,97.90
2023-03-13T04:35:38.691Z,95.00
2023-03-13T04:38:06.861Z,95.50
2023-03-13T04:40:35.032Z,95.10
2023-03-13T04:43:04.559Z,92.60
2023-03-13T04:45:32.789Z,90.50
2023-03-13T04:48:00.912Z,96.80
2023-03-13T04:50:29.038Z,93.40
2023-03-13T04:52:57.151Z,97.00
2023-03-13T04:55:25.334Z,94.80
2023-03-13T04:57:53.474Z,99.60
2023-03-13T05:00:23.403Z,93.00
2023-03-13T05:02:51.549Z,94.30
2023-03-13T05:05:19.719Z,92.00
2023-03-13T05:07:47.953Z,87.80
2023-03-13T05:10:16.125Z,90.70
2023-03-13T05:12:44.253Z,91.70
2023-03-13T05:15:13.051Z,94.10
2023-03-13T05:17:42.648Z,92.60
2023-03-13T05:20:12.438Z,90.30
2023-03-13T05:22:40.601Z,93.80
2023-03-13T05:25:09.350Z,87.10
2023-03-13T05:27:37.517Z,91.00
2023-03-13T05:30:06.766Z,94.80
2023-03-13T05:32:34.979Z,91.00
2023-03-13T05:35:04.649Z,94.40
2023-03-13T05:37:32.756Z,95.80
2023-03-13T05:40:01.056Z,91.00
2023-03-13T05:42:29.199Z,96.00
2023-03-13T05:44:57.385Z,90.70
2023-03-13T05:47:25.633Z,96.20
2023-03-13T05:49:53.766Z,84.20
2023-03-13T05:52:23.420Z,86.30
2023-03-13T05:54:51.542Z,85.50
2023-03-13T05:57:19.647Z,93.50
2023-03-13T05:59:47.786Z,78.40
2023-03-13T06:02:15.984Z,84.00
2023-03-13T06:04:44.412Z,76.80
2023-03-13T06:07:12.651Z,86.20
2023-03-13T06:09:42.203Z,86.90
2023-03-13T06:12:11.135Z,82.20
2023-03-13T06:14:39.386Z,71.00
2023-03-13T06:17:08.588Z,63.20
2023-03-13T06:19:36.741Z,83.20
2023-03-13T06:22:04.970Z,67.30
2023-03-13T06:24:33.394Z,50.00
2023-03-13T06:27:02.973Z,49.70
2023-03-13T06:29:31.104Z,47.10
2023-03-13T06:31:59.346Z,64.00
2023-03-13T06:34:27.616Z,81.60
2023-03-13T06:36:58.512Z,59.50
2023-03-13T06:39:26.749Z,94.30
2023-03-13T06:41:54.866Z,91.00
2023-03-13T06:44:24.393Z,67.70
2023-03-13T06:46:52.560Z,54.30
2023-03-13T06:49:20.807Z,88.90
2023-03-13T06:51:49.016Z,57.60
2023-03-13T06:54:17.124Z,31.60
2023-03-13T06:56:45.298Z,29.50
2023-03-13T06:59:13.445Z,42.20
2023-03-13T07:01:43.056Z,30.30
2023-03-13T07:04:14.737Z,51.20
2023-03-13T07:06:42.930Z,21.90
2023-03-13T07:09:11.734Z,10.00
2023-03-13T07:11:39.908Z,1.20
2023-03-13T07:14:16.593Z,9.00
2023-03-13T07:16:47.568Z,13.20
2023-03-13T07:19:16.256Z,16.50
2023-03-13T07:21:45.184Z,20.90
2023-03-13T07:24:13.728Z,18.30
2023-03-13T07:26:48.691Z,20.70
2023-03-13T07:29:26.284Z,12.60
2023-03-13T07:31:55.847Z,27.70
2023-03-13T07:34:24.017Z,8.30
2023-03-13T07:36:52.151Z,2.90
2023-03-13T07:39:20.282Z,1.00
2023-03-13T07:41:48.389Z,6.80
2023-03-13T07:44:16.472Z,15.40
2023-03-13T07:46:44.673Z,12.60
2023-03-13T07:49:14.189Z,27.90
2023-03-13T07:51:43.872Z,27.00
2023-03-13T07:54:12.800Z,15.90
2023-03-13T07:56:41.305Z,23.60
2023-03-13T07:59:09.798Z,3.90
2023-03-13T08:01:38.093Z,13.30
2023-03-13T08:04:06.694Z,1.00
2023-03-13T08:06:36.829Z,1.00
2023-03-13T08:09:05.640Z,4.60
2023-03-13T08:11:34.011Z,13.40
2023-03-13T08:14:02.151Z,20.10
2023-03-13T08:16:32.335Z,16.70
2023-03-13T08:19:01.096Z,20.60
2023-03-13T08:21:30.546Z,23.70
2023-03-13T08:24:02.553Z,23.60
2023-03-13T08:26:31.952Z,16.70
2023-03-13T08:29:01.880Z,22.50
2023-03-13T08:31:31.611Z,17.80
2023-03-13T08:34:02.572Z,4.90
2023-03-13T08:36:32.908Z,4.00
2023-03-13T08:39:04.868Z,1.00
2023-03-13T08:41:36.230Z,13.30
2023-03-13T08:44:05.656Z,10.00
2023-03-13T08:46:37.505Z,7.60
2023-03-13T08:49:07.769Z,9.80
2023-03-13T08:51:36.648Z,9.50
2023-03-13T08:54:06.906Z,1.00
2023-03-13T08:56:35.309Z,1.00
2023-03-13T08:59:05.535Z,8.60
2023-03-13T09:01:36.521Z,13.60
2023-03-13T09:04:06.452Z,16.10
2023-03-13T09:06:35.161Z,3.30
2023-03-13T09:09:05.721Z,3.30
2023-03-13T09:11:34.397Z,1.00
2023-03-13T09:14:03.753Z,3.70
2023-03-13T09:16:33.788Z,2.40
2023-03-13T09:19:02.567Z,1.00
2023-03-13T09:21:32.476Z,1.00
2023-03-13T09:24:00.996Z,5.90
2023-03-13T09:26:30.689Z,1.00
2023-03-13T09:29:00.083Z,1.00
2023-03-13T09:31:30.235Z,5.00
2023-03-13T09:33:58.977Z,11.40
2023-03-13T09:36:28.269Z,9.10
2023-03-13T09:38:58.194Z,18.70
2023-03-13T09:41:33.375Z,12.10
2023-03-13T09:44:06.842Z,21.40
2023-03-13T09:46:40.577Z,14.40
2023-03-13T09:49:18.338Z,18.80
2023-03-13T09:51:51.970Z,21.60
2023-03-13T09:54:26.884Z,25.20
2023-03-13T09:56:59.993Z,21.30
2023-03-13T09:59:34.891Z,17.20
2023-03-13T10:02:11.401Z,18.30
2023-03-13T10:04:44.964Z,25.70
2023-03-13T10:07:13.656Z,29.00
2023-03-13T10:09:42.458Z,30.60
2023-03-13T10:12:20.706Z,23.30
2023-03-13T10:15:13.622Z,22.50
2023-03-13T10:17:42.284Z,27.90
2023-03-13T10:20:18.867Z,32.10
2023-03-13T10:22:49.358Z,24.50
2023-03-13T10:25:28.258Z,31.40
2023-03-13T10:27:58.102Z,40.90
2023-03-13T10:30:28.848Z,33.10
2023-03-13T10:33:01.304Z,23.60
2023-03-13T10:35:41.913Z,29.50
2023-03-13T10:38:13.167Z,30.30
2023-03-13T10:40:42.800Z,28.90
2023-03-13T10:43:22.309Z,35.70
2023-03-13T10:45:50.653Z,43.30
2023-03-13T10:48:22.161Z,29.40
2023-03-13T10:50:53.727Z,28.20
2023-03-13T10:53:25.460Z,26.60
2023-03-13T10:55:58.980Z,35.60
2023-03-13T10:58:35.440Z,28.00
2023-03-13T11:01:19.283Z,25.50
2023-03-13T11:03:48.869Z,37.10
2023-03-13T11:06:28.927Z,31.70
2023-03-13T11:09:06.486Z,22.20
2023-03-13T11:11:46.191Z,16.90
2023-03-13T11:14:18.596Z,26.90
2023-03-13T11:16:51.541Z,20.80
2023-03-13T11:19:43.777Z,23.70
2023-03-13T11:22:25.671Z,31.50
2023-03-13T11:25:04.365Z,50.60
2023-03-13T11:27:39.910Z,43.10
2023-03-13T11:30:22.764Z,51.90
2023-03-13T11:32:56.235Z,52.40
2023-03-13T11:35:38.342Z,29.10
2023-03-13T11:38:12.950Z,32.70
2023-03-13T11:40:51.429Z,51.20
2023-03-13T11:43:42.106Z,53.00
2023-03-13T11:46:31.914Z,56.20
2023-03-13T11:49:25.791Z,52.90
2023-03-13T11:52:03.978Z,59.40
2023-03-13T11:55:05.892Z,60.20
2023-03-13T11:57:41.137Z,61.40
2023-03-13T12:00:22.960Z,66.00
2023-03-13T12:02:57.379Z,64.00
2023-03-13T12:05:28.705Z,58.80
2023-03-13T12:08:03.725Z,72.80
2023-03-13T12:10:39.660Z,67.40
2023-03-13T12:13:13.621Z,62.50
2023-03-13T12:15:45.535Z,49.40
2023-03-13T12:18:21.682Z,60.90
2023-03-13T12:20:57.554Z,60.10
2023-03-13T12:23:31.223Z,65.80
2023-03-13T12:26:05.640Z,65.90
2023-03-13T12:28:46.714Z,79.90
2023-03-13T12:31:27.921Z,82.60
2023-03-13T12:34:07.894Z,67.00
2023-03-13T12:36:42.618Z,56.10
2023-03-13T12:39:23.899Z,61.00
2023-03-13T12:41:58.604Z,61.60
2023-03-13T12:44:27.187Z,68.00
2023-03-13T12:47:03.457Z,60.00
2023-03-13T12:50:15.253Z,48.80
2023-03-13T12:53:05.919Z,59.50
2023-03-13T12:56:06.762Z,52.90
2023-03-13T12:58:53.791Z,61.60
2023-03-13T13:01:31.537Z,55.00
2023-03-13T13:04:02.415Z,37.30
2023-03-13T13:06:53.539Z,44.70
2023-03-13T13:09:25.992Z,35.70
2023-03-13T13:11:57.604Z,46.10
2023-03-13T13:15:01.841Z,29.20
2023-03-13T13:18:06.855Z,34.90
2023-03-13T13:20:42.247Z,47.80
2023-03-13T13:23:34.891Z,46.50
2023-03-13T13:26:48.255Z,34.20
2023-03-13T13:29:59.150Z,50.10
2023-03-13T13:32:53.868Z,48.60
2023-03-13T13:35:29.305Z,33.70
2023-03-13T13:38:29.535Z,32.40
2023-03-13T13:41:03.936Z,27.20
2023-03-13T13:43:36.377Z,30.30
2023-03-13T13:46:19.930Z,28.20
2023-03-13T13:48:48.190Z,20.50
2023-03-13T13:51:34.745Z,37.50
2023-03-13T13:54:04.644Z,28.30
2023-03-13T13:56:47.052Z,28.80
2023-03-13T13:59:37.005Z,34.60
2023-03-13T14:02:21.784Z,30.30
2023-03-13T14:05:08.260Z,21.30
2023-03-13T14:07:49.304Z,31.40
2023-03-13T14:10:27.975Z,29.30
2023-03-13T14:12:59.661Z,41.70
2023-03-13T14:15:32.558Z,55.80
2023-03-13T14:18:09.946Z,42.40
2023-03-13T14:20:39.403Z,32.20
2023-03-13T14:23:11.369Z,25.20
2023-03-13T14:25:45.836Z,18.60
2023-03-13T14:28:21.637Z,32.30
2023-03-13T14:30:54.634Z,38.20
2023-03-13T14:33:26.865Z,46.20
2023-03-13T14:35:55.631Z,48.10
2023-03-13T14:38:25.390Z,42.90
2023-03-13T14:40:56.062Z,47.50
2023-03-13T14:43:32.413Z,43.50
2023-03-13T14:46:04.247Z,47.80
2023-03-13T14:48:36.758Z,38.80
2023-03-13T14:51:15.725Z,30.30
2023-03-13T14:53:56.527Z,30.90
2023-03-13T14:56:33.848Z,25.60
2023-03-13T14:59:15.560Z,25.50
2023-03-13T15:01:44.121Z,35.80
2023-03-13T15:04:12.402Z,27.10
2023-03-13T15:06:40.756Z,29.90
2023-03-13T15:09:16.960Z,18.70
2023-03-13T15:11:55.389Z,29.80
2023-03-13T15:14:42.463Z,31.70
2023-03-13T15:17:17.207Z,63.50
2023-03-13T15:19:50.242Z,28.80
2023-03-13T15:22:19.260Z,58.00
2023-03-13T15:25:03.341Z,32.20
2023-03-13T15:27:33.841Z,41.70
2023-03-13T15:30:03.604Z,44.60
2023-03-13T15:32:34.722Z,50.60
2023-03-13T15:35:03.439Z,17.90
2023-03-13T15:37:32.344Z,44.10
2023-03-13T15:40:00.578Z,35.40
2023-03-13T15:42:28.965Z,28.70
2023-03-13T15:44:57.208Z,22.20
2023-03-13T15:47:27.975Z,35.70
2023-03-13T15:49:56.181Z,24.90
2023-03-13T15:52:24.384Z,26.30
2023-03-13T15:54:53.145Z,33.30
2023-03-13T15:57:24.243Z,17.30
2023-03-13T15:59:53.277Z,23.00
2023-03-13T16:02:23.468Z,16.50
2023-03-13T16:04:53.324Z,13.30
2023-03-13T16:07:22.661Z,15.10
2023-03-13T16:09:51.140Z,19.90
2023-03-13T16:12:19.368Z,30.70
2023-03-13T16:14:47.594Z,56.90
2023-03-13T16:17:18.182Z,47.50
2023-03-13T16:19:48.035Z,46.50
2023-03-13T16:22:17.738Z,42.00
2023-03-13T16:24:45.960Z,42.90
2023-03-13T16:27:19.057Z,42.00
2023-03-13T16:29:47.918Z,45.70
2023-03-13T16:32:18.757Z,46.70
2023-03-13T16:34:47.045Z,42.50
2023-03-13T16:37:18.279Z,39.90
2023-03-13T16:39:47.304Z,40.30
2023-03-13T16:42:15.641Z,51.10
2023-03-13T16:44:43.898Z,62.80
2023-03-13T16:47:21.863Z,50.50
2023-03-13T16:49:50.524Z,62.00
2023-03-13T16:52:20.218Z,54.60
2023-03-13T16:54:48.724Z,59.00
2023-03-13T16:57:19.775Z,46.40
2023-03-13T16:59:48.029Z,42.00
2023-03-13T17:02:18.134Z,43.90
2023-03-13T17:04:47.490Z,49.90
2023-03-13T17:07:23.148Z,56.30
2023-03-13T17:09:52.294Z,57.00
2023-03-13T17:12:20.950Z,55.90
2023-03-13T17:14:49.424Z,54.50
2023-03-13T17:17:20.208Z,58.40
2023-03-13T17:19:48.986Z,51.60
2023-03-13T17:22:18.681Z,49.90
2023-03-13T17:24:49.174Z,58.60
2023-03-13T17:27:18.899Z,56.60
2023-03-13T17:29:47.229Z,56.90
2023-03-13T17:32:16.396Z,53.90
2023-03-13T17:34:44.670Z,60.20
2023-03-13T17:37:17.683Z,67.40
2023-03-13T17:39:47.803Z,73.60
2023-03-13T17:42:16.339Z,54.10
2023-03-13T17:44:44.603Z,64.80
2023-03-13T17:47:17.726Z,59.10
2023-03-13T17:49:46.353Z,63.00
2023-03-13T17:52:15.948Z,64.60
2023-03-13T17:54:44.697Z,64.80
2023-03-13T17:57:17.726Z,57.50
2023-03-13T17:59:46.700Z,67.00
2023-03-13T18:02:16.603Z,71.50
2023-03-13T18:04:45.042Z,69.00
2023-03-13T18:07:18.682Z,70.60
2023-03-13T18:09:47.875Z,73.20
2023-03-13T18:12:17.830Z,67.90
2023-03-13T18:14:46.155Z,57.10
2023-03-13T18:17:17.800Z,58.70
2023-03-13T18:19:46.667Z,67.20
2023-03-13T18:22:17.148Z,70.60
2023-03-13T18:24:45.420Z,64.40
2023-03-13T18:27:15.581Z,61.90
2023-03-13T18:29:45.820Z,59.70
2023-03-13T18:32:16.054Z,60.20
2023-03-13T18:34:44.670Z,60.70
2023-03-13T18:37:21.727Z,61.90
2023-03-13T18:39:51.276Z,66.60
2023-03-13T18:42:19.862Z,60.30
2023-03-13T18:44:49.557Z,61.20
2023-03-13T18:47:19.854Z,66.40
2023-03-13T18:49:48.827Z,58.20
2023-03-13T18:52:17.662Z,63.50
2023-03-13T18:54:46.095Z,58.80
2023-03-13T18:57:16.127Z,57.10
2023-03-13T18:59:44.916Z,57.40
2023-03-13T19:02:16.865Z,63.50
2023-03-13T19:04:47.030Z,58.40
2023-03-13T19:07:17.014Z,53.50
2023-03-13T19:09:46.970Z,55.10
2023-03-13T19:12:16.592Z,59.40
2023-03-13T19:14:44.876Z,59.10
2023-03-13T19:17:21.296Z,61.00
2023-03-13T19:19:49.458Z,57.60
2023-03-13T19:22:17.620Z,60.10
2023-03-13T19:24:45.798Z,55.70
2023-03-13T19:27:16.757Z,54.90
2023-03-13T19:29:45.803Z,60.90
2023-03-13T19:32:17.222Z,55.90
2023-03-13T19:34:45.705Z,61.40
2023-03-13T19:37:15.335Z,59.70
2023-03-13T19:39:43.814Z,55.50
2023-03-13T19:42:12.134Z,58.20
2023-03-13T19:44:41.481Z,61.50
2023-03-13T19:47:14.786Z,62.10
2023-03-13T19:49:45.506Z,64.40
2023-03-13T19:52:13.691Z,67.50
2023-03-13T19:54:41.862Z,68.10
2023-03-13T19:57:11.353Z,65.10
2023-03-13T19:59:40.165Z,72.10
2023-03-13T20:02:11.586Z,67.70
2023-03-13T20:04:41.102Z,70.20
2023-03-13T20:07:10.616Z,67.20
2023-03-13T20:09:38.726Z,64.20
2023-03-13T20:12:07.274Z,61.50
2023-03-13T20:14:35.539Z,70.60
2023-03-13T20:17:04.383Z,67.60
2023-03-13T20:19:32.604Z,64.40
2023-03-13T20:22:03.746Z,67.30
2023-03-13T20:24:34.358Z,68.80
2023-03-13T20:27:02.825Z,69.90
2023-03-13T20:29:30.981Z,69.00
2023-03-13T20:32:01.253Z,74.90
2023-03-13T20:34:29.658Z,75.20
2023-03-13T20:36:59.868Z,72.50
2023-03-13T20:39:28.774Z,71.60
2023-03-13T20:42:02.601Z,79.30
2023-03-13T20:44:31.064Z,71.60
2023-03-13T20:46:59.191Z,68.20
2023-03-13T20:49:27.491Z,74.50
2023-03-13T20:51:55.653Z,72.40
2023-03-13T20:54:23.760Z,76.30
2023-03-13T20:56:52.046Z,80.40
2023-03-13T20:59:21.604Z,78.40
2023-03-13T21:01:49.777Z,74.50
2023-03-13T21:04:17.980Z,76.50
2023-03-13T21:06:46.140Z,88.00
2023-03-13T21:09:14.616Z,84.50
2023-03-13T21:11:42.830Z,80.20
2023-03-13T21:14:11.006Z,85.40
2023-03-13T21:16:40.593Z,80.70
2023-03-13T21:19:08.785Z,83.80
2023-03-13T21:21:36.916Z,79.90
2023-03-13T21:24:05.394Z,79.00
2023-03-13T21:26:33.523Z,83.30
2023-03-13T21:29:01.759Z,80.30
2023-03-13T21:31:30.364Z,82.60
2023-03-13T21:33:59.939Z,84.50
2023-03-13T21:36:28.260Z,82.50
2023-03-13T21:38:56.478Z,79.60
2023-03-13T21:41:24.610Z,76.20
2023-03-13T21:43:52.951Z,74.50
2023-03-13T21:46:22.592Z,82.00
2023-03-13T21:48:51.091Z,79.30
2023-03-13T21:51:20.611Z,77.10
2023-03-13T21:53:48.722Z,87.90
2023-03-13T21:56:17.307Z,76.90
2023-03-13T21:58:46.389Z,72.90
2023-03-13T22:01:15.840Z,77.60
2023-03-13T22:03:44.367Z,75.70
2023-03-13T22:06:18.035Z,78.90
2023-03-13T22:08:49.026Z,78.00
2023-03-13T22:11:17.610Z,76.90
2023-03-13T22:13:45.988Z,72.20
2023-03-13T22:16:14.203Z,76.50
2023-03-13T22:18:43.229Z,77.30
2023-03-13T22:21:11.520Z,76.60
2023-03-13T22:23:39.695Z,74.60
2023-03-13T22:26:09.315Z,73.00
2023-03-13T22:28:37.444Z,68.60
2023-03-13T22:31:08.156Z,74.80
2023-03-13T22:33:36.708Z,70.50
2023-03-13T22:36:06.096Z,78.80
2023-03-13T22:38:38.760Z,69.60
2023-03-13T22:41:10.509Z,64.50
2023-03-13T22:43:38.646Z,79.00
2023-03-13T22:46:07.558Z,80.60
2023-03-13T22:48:37.168Z,73.80
2023-03-13T22:51:08.858Z,74.90
2023-03-13T22:53:39.505Z,62.20
2023-03-13T22:56:11.245Z,68.30
2023-03-13T22:58:39.506Z,67.60
2023-03-13T23:01:08.542Z,66.90
2023-03-13T23:03:36.752Z,65.40
2023-03-13T23:06:07.218Z,67.70
2023-03-13T23:08:35.649Z,71.40
2023-03-13T23:11:04.611Z,74.40
2023-03-13T23:13:34.358Z,70.20
2023-03-13T23:16:05.474Z,71.00
2023-03-13T23:18:33.669Z,69.00
2023-03-13T23:21:06.023Z,70.00
2023-03-13T23:23:34.811Z,74.00
2023-03-13T23:26:03.663Z,73.50
2023-03-13T23:28:34.138Z,73.90
2023-03-13T23:31:09.022Z,69.00
2023-03-13T23:33:37.132Z,76.00
2023-03-13T23:36:09.573Z,73.60
2023-03-13T23:38:37.804Z,76.50
2023-03-13T23:41:10.602Z,76.50
2023-03-13T23:43:40.499Z,90.40
2023-03-13T23:46:17.571Z,88.60
2023-03-13T23:48:45.742Z,75.00
2023-03-13T23:51:14.073Z,86.00
2023-03-13T23:53:44.064Z,89.40
2023-03-13T23:56:12.967Z,90.10
2023-03-13T23:58:43.022Z,87.60
